createdAt,value
2018-08-04T00:03:51.443Z,29.60
2018-08-04T00:08:54.643Z,29.60
2018-08-04T00:13:57.843Z,29.50
2018-08-04T00:19:01.039Z,29.50
2018-08-04T00:24:04.231Z,29.40
2018-08-04T00:29:07.431Z,29.40
2018-08-04T00:34:10.630Z,29.40
2018-08-04T00:39:13.822Z,29.30
2018-08-04T00:44:17.022Z,29.30
2018-08-04T00:49:20.211Z,29.20
2018-08-04T00:54:23.427Z,29.20
2018-08-04T00:59:26.615Z,29.20
2018-08-04T01:04:29.810Z,29.10
2018-08-04T01:09:33.011Z,29.10
2018-08-04T01:14:36.211Z,29.00
2018-08-04T01:19:40.436Z,29.00
2018-08-04T01:24:43.618Z,29.00
2018-08-04T01:29:46.810Z,28.90
2018-08-04T01:34:50.031Z,28.90
2018-08-04T01:39:53.239Z,28.90
2018-08-04T01:44:56.467Z,28.80
2018-08-04T01:49:59.683Z,28.80
2018-08-04T01:55:02.952Z,28.70
2018-08-04T02:00:06.338Z,28.70
2018-08-04T02:05:09.558Z,28.70
2018-08-04T02:10:12.769Z,28.60
2018-08-04T02:15:16.011Z,28.60
2018-08-04T02:20:19.295Z,28.60
2018-08-04T02:25:22.519Z,28.50
2018-08-04T02:30:25.759Z,28.50
2018-08-04T02:35:28.970Z,28.50
2018-08-04T02:40:32.191Z,28.40
2018-08-04T02:45:35.415Z,28.40
2018-08-04T02:50:38.663Z,28.40
2018-08-04T02:55:41.886Z,28.30
2018-08-04T03:00:45.104Z,28.30
2018-08-04T03:05:48.368Z,28.20
2018-08-04T03:10:51.599Z,28.20
2018-08-04T03:15:54.831Z,28.20
2018-08-04T03:20:58.063Z,28.20
2018-08-04T03:26:01.292Z,28.10
2018-08-04T03:31:04.515Z,28.10
2018-08-04T03:36:07.747Z,28.10
2018-08-04T03:41:11.005Z,28.00
2018-08-04T03:46:14.218Z,28.00
2018-08-04T03:51:17.454Z,28.00
2018-08-04T03:56:20.743Z,28.00
2018-08-04T04:01:23.994Z,27.90
2018-08-04T04:06:27.215Z,27.90
2018-08-04T04:11:30.438Z,27.80
2018-08-04T04:16:33.682Z,27.80
2018-08-04T04:21:36.921Z,27.80
2018-08-04T04:26:40.154Z,27.80
2018-08-04T04:31:43.391Z,27.80
2018-08-04T04:36:46.671Z,27.70
2018-08-04T04:41:49.853Z,27.70
2018-08-04T04:46:53.078Z,27.60
2018-08-04T04:51:56.342Z,27.70
2018-08-04T04:56:59.555Z,27.60
2018-08-04T05:02:02.787Z,27.60
2018-08-04T05:07:06.163Z,27.60
2018-08-04T05:12:09.382Z,27.50
2018-08-04T05:17:12.607Z,27.50
2018-08-04T05:22:15.831Z,27.50
2018-08-04T05:27:19.075Z,27.50
2018-08-04T05:32:22.432Z,27.50
2018-08-04T05:42:28.630Z,27.50
2018-08-04T05:47:31.858Z,27.50
2018-08-04T05:52:35.100Z,27.60
2018-08-04T05:57:38.314Z,27.50
2018-08-04T06:02:41.695Z,27.50
2018-08-04T06:07:44.911Z,27.60
2018-08-04T06:12:48.138Z,27.50
2018-08-04T06:17:52.315Z,27.60
2018-08-04T06:22:55.552Z,27.60
2018-08-04T06:27:58.779Z,27.60
2018-08-04T06:33:01.996Z,27.60
2018-08-04T06:38:05.243Z,27.60
2018-08-04T06:43:08.473Z,27.60
2018-08-04T06:48:11.695Z,27.60
2018-08-04T06:53:14.962Z,27.70
2018-08-04T06:58:18.187Z,27.70
2018-08-04T07:03:21.403Z,27.70
2018-08-04T07:08:24.615Z,27.70
2018-08-04T07:13:27.827Z,27.70
2018-08-04T07:18:31.053Z,27.70
2018-08-04T07:23:34.275Z,27.80
2018-08-04T07:28:37.499Z,27.80
2018-08-04T07:33:40.726Z,27.80
2018-08-04T07:38:43.943Z,27.80
2018-08-04T07:43:47.167Z,27.80
2018-08-04T07:48:50.389Z,27.90
2018-08-04T07:53:53.623Z,27.90
2018-08-04T07:58:56.875Z,28.00
2018-08-04T08:04:00.109Z,28.00
2018-08-04T08:09:04.235Z,28.10
2018-08-04T08:14:07.455Z,28.10
2018-08-04T08:19:10.709Z,28.20
2018-08-04T08:24:13.943Z,28.20
2018-08-04T08:29:17.171Z,28.30
2018-08-04T08:34:20.402Z,28.40
2018-08-04T08:39:23.613Z,28.40
2018-08-04T08:44:26.835Z,28.50
2018-08-04T08:49:30.135Z,28.50
2018-08-04T08:54:33.515Z,28.60
2018-08-04T09:04:39.788Z,28.80
2018-08-04T09:09:43.011Z,28.80
2018-08-04T09:14:46.244Z,28.90
2018-08-04T09:19:49.480Z,29.00
2018-08-04T09:24:52.706Z,29.10
2018-08-04T09:29:55.929Z,29.20
2018-08-04T09:34:59.159Z,29.30
2018-08-04T09:40:02.604Z,29.40
2018-08-04T09:45:06.843Z,29.50
2018-08-04T09:50:11.691Z,29.60
2018-08-04T09:55:14.918Z,29.70
2018-08-04T10:00:23.483Z,29.80
2018-08-04T10:05:26.723Z,29.90
2018-08-04T10:10:29.954Z,29.90
2018-08-04T10:15:33.151Z,30.10
2018-08-04T10:20:36.610Z,30.20
2018-08-04T10:25:39.941Z,30.30
2018-08-04T10:30:43.147Z,30.40
2018-08-04T10:35:46.360Z,30.50
2018-08-04T10:40:49.574Z,30.60
2018-08-04T10:45:52.774Z,30.70
2018-08-04T10:50:56.028Z,30.80
2018-08-04T10:55:59.237Z,30.90
2018-08-04T11:01:02.443Z,31.00
2018-08-04T11:06:05.739Z,31.00
2018-08-04T11:11:08.959Z,31.10
2018-08-04T11:16:12.183Z,31.20
2018-08-04T11:21:15.398Z,31.20
2018-08-04T11:26:18.628Z,31.30
2018-08-04T11:31:21.871Z,31.40
2018-08-04T11:36:25.087Z,31.50
2018-08-04T11:41:28.299Z,31.50
2018-08-04T11:46:31.528Z,31.60
2018-08-04T11:51:34.922Z,31.70
2018-08-04T12:01:41.315Z,31.80
2018-08-04T12:06:44.542Z,31.90
2018-08-04T12:11:47.789Z,32.00
2018-08-04T12:16:51.022Z,32.00
2018-08-04T12:21:54.258Z,32.10
2018-08-04T12:26:57.502Z,32.10
2018-08-04T12:32:00.747Z,32.20
2018-08-04T12:37:03.994Z,32.20
2018-08-04T12:42:07.226Z,32.30
2018-08-04T12:47:10.446Z,32.30
2018-08-04T12:52:13.698Z,32.30
2018-08-04T12:57:16.922Z,32.30
2018-08-04T13:02:20.667Z,32.30
2018-08-04T13:07:23.876Z,32.30
2018-08-04T13:17:30.097Z,32.30
2018-08-04T13:22:33.320Z,32.40
2018-08-04T13:27:36.553Z,32.40
2018-08-04T13:32:39.743Z,32.50
2018-08-04T13:37:42.974Z,32.40
2018-08-04T13:42:46.228Z,32.40
2018-08-04T13:47:49.393Z,32.40
2018-08-04T13:52:52.634Z,32.50
2018-08-04T13:57:55.874Z,32.50
2018-08-04T14:02:59.192Z,32.50
2018-08-04T14:08:02.413Z,32.50
2018-08-04T14:13:05.748Z,32.60
2018-08-04T14:18:08.950Z,32.60
2018-08-04T14:23:12.200Z,32.60
2018-08-04T14:28:15.430Z,32.60
2018-08-04T14:33:18.740Z,32.60
2018-08-04T14:38:21.956Z,32.60
2018-08-04T14:43:25.185Z,32.60
2018-08-04T14:48:28.380Z,32.60
2018-08-04T14:53:31.801Z,32.70
2018-08-04T14:58:35.027Z,32.70
2018-08-04T15:03:38.255Z,32.70
2018-08-04T15:08:41.487Z,32.70
2018-08-04T15:13:44.715Z,32.70
2018-08-04T15:18:47.934Z,32.70
2018-08-04T15:23:51.150Z,32.70
2018-08-04T15:28:54.382Z,32.70
2018-08-04T15:33:57.624Z,32.70
2018-08-04T15:39:00.827Z,32.70
2018-08-04T15:44:04.057Z,32.70
2018-08-04T15:49:07.315Z,32.70
2018-08-04T15:54:10.558Z,32.70
2018-08-04T15:59:13.775Z,32.70
2018-08-04T16:04:16.993Z,32.80
2018-08-04T16:09:20.230Z,32.70
2018-08-04T16:14:23.558Z,32.70
2018-08-04T16:19:26.769Z,32.70
2018-08-04T16:24:30.002Z,32.70
2018-08-04T16:29:33.233Z,32.70
2018-08-04T16:34:36.431Z,32.70
2018-08-04T16:39:39.650Z,32.70
2018-08-04T16:44:42.859Z,32.60
2018-08-04T16:49:46.090Z,32.60
2018-08-04T16:54:49.339Z,32.60
2018-08-04T16:59:52.571Z,32.60
2018-08-04T17:04:55.799Z,32.60
2018-08-04T17:09:59.025Z,32.50
2018-08-04T17:15:02.280Z,32.50
2018-08-04T17:20:05.674Z,32.40
2018-08-04T17:25:08.894Z,32.50
2018-08-04T17:30:12.118Z,32.40
2018-08-04T17:35:15.339Z,32.40
2018-08-04T17:40:18.552Z,32.40
2018-08-04T17:45:21.771Z,32.40
2018-08-04T17:50:24.998Z,32.30
2018-08-04T17:55:28.205Z,32.30
2018-08-04T18:00:31.426Z,32.20
2018-08-04T18:05:34.662Z,32.20
2018-08-04T18:10:37.879Z,32.20
2018-08-04T18:15:41.103Z,32.10
2018-08-04T18:20:44.319Z,32.10
2018-08-04T18:25:47.659Z,32.00
2018-08-04T18:30:50.938Z,31.90
2018-08-04T18:35:54.307Z,31.90
2018-08-04T18:40:57.527Z,31.80
2018-08-04T18:46:00.747Z,31.80
2018-08-04T18:51:04.019Z,31.70
2018-08-04T18:56:07.243Z,31.70
2018-08-04T19:01:10.483Z,31.60
2018-08-04T19:06:13.715Z,31.60
2018-08-04T19:11:16.943Z,31.50
2018-08-04T19:16:20.193Z,31.50
2018-08-04T19:26:26.366Z,31.40
2018-08-04T19:31:29.591Z,31.30
2018-08-04T19:36:32.818Z,31.30
2018-08-04T19:41:36.054Z,31.20
2018-08-04T19:46:39.299Z,31.10
2018-08-04T19:51:42.570Z,31.10
2018-08-04T19:56:45.788Z,31.00
2018-08-04T20:01:48.998Z,31.00
2018-08-04T20:06:52.223Z,30.90
2018-08-04T20:11:55.455Z,30.90
2018-08-04T20:16:58.687Z,30.90
2018-08-04T20:22:01.919Z,30.80
2018-08-04T20:27:05.182Z,30.70
2018-08-04T20:32:08.730Z,30.70
2018-08-04T20:37:11.963Z,30.60
2018-08-04T20:42:15.210Z,30.60
2018-08-04T20:47:18.423Z,30.50
2018-08-04T20:52:21.662Z,30.50
2018-08-04T20:57:24.887Z,30.40
2018-08-04T21:02:28.119Z,30.40
2018-08-04T21:07:31.338Z,30.30
2018-08-04T21:12:34.557Z,30.30
2018-08-04T21:17:37.778Z,30.30
2018-08-04T21:22:41.015Z,30.20
2018-08-04T21:27:44.247Z,30.10
2018-08-04T21:32:47.475Z,30.10
2018-08-04T21:37:50.701Z,30.10
2018-08-04T21:42:53.925Z,30.10
2018-08-04T21:47:57.402Z,30.00
2018-08-04T21:53:00.631Z,29.90
2018-08-04T21:58:03.863Z,29.90
2018-08-04T22:03:07.123Z,29.90
2018-08-04T22:08:21.899Z,29.90
2018-08-04T22:13:25.131Z,29.80
2018-08-04T22:18:28.348Z,29.80
2018-08-04T22:23:31.562Z,29.70
2018-08-04T22:28:34.779Z,29.70
2018-08-04T22:33:38.036Z,29.70
2018-08-04T22:38:41.255Z,29.60
2018-08-04T22:43:44.491Z,29.60
2018-08-04T22:48:49.143Z,29.60
2018-08-04T22:53:52.415Z,29.50
2018-08-04T22:58:55.690Z,29.50
2018-08-04T23:03:58.915Z,29.50
2018-08-04T23:09:02.151Z,29.40
2018-08-04T23:14:05.395Z,29.40
2018-08-04T23:19:08.627Z,29.30
2018-08-04T23:24:11.842Z,29.30
2018-08-04T23:29:15.055Z,29.20
2018-08-04T23:34:18.284Z,29.20
2018-08-04T23:39:21.511Z,29.20
2018-08-04T23:44:24.726Z,29.10
2018-08-04T23:49:27.959Z,29.10
2018-08-04T23:54:31.214Z,29.10
2018-08-04T23:59:34.439Z,29.00
